Leetonia, Minnesota
Current Conditions -  °F | °C
As of 6:04 PM on Friday 28 Nov 2014 (Local Time) from KHIB Reporting Station
Overcast Overcast  
Wind Chill:   Ceiling: 1800
Heat Index: 18°   Visibility: 10mi
Dew Point: 11°   Wind: 8mph
Humidity: 74%   Direction: 130°SE
Pressure: 29.82"   Gusts: NA
Location:  47.4158°N, 93.0053°W
Report Text: KHIB 290004Z AUTO 13007KT 10SM BKN018 OVC035 M08/M12 A2982 RMK AO2 T10781117
Loading
Personal Weather Stations






























Interactive Weather Map New forecast layout! Learn more

10-Day Weather Forecast

Advertisements
Track Severe Weather on mobile